Byron, Michigan
Current Conditions -  °F | °C
As of 1:15 PM on Thursday 27 Nov 2014 (Local Time) from KOZW Reporting Station
Overcast Overcast  
Wind Chill: 21°   Ceiling: 2100
Heat Index: 30°   Visibility: 10mi
Dew Point: 24°   Wind: 10mph
Humidity: 76%   Direction: 310°NW
Pressure: 30.15"   Gusts: NA
Location:  42.82°N, 83.94°W
Report Text: KOZW 271815Z AUTO 31009KT 10SM OVC021 M01/M05 A3015 RMK AO2 T10101047
Loading
Personal Weather Stations






























Interactive Weather Map New forecast layout! Learn more

10-Day Weather Forecast

Advertisements
Track Severe Weather on mobile